Terminal Aerodrome Forecast
Issued by NWS

Home | Current Version | Previous Version | Text Only | Print | Product List | Glossary On
Versions: 1 2 3 4 5 6 7 8 9 10 11 12 13 14 15 16 17 18 19 20 21 22
000
FTUS42 KTBW 260810 AAA
TAFLAL
TAF AMD
KLAL 260810Z 2608/2706 22007KT P6SM SCT008
      TEMPO 2608/2612 BKN008
     FM261400 23012G18KT P6SM VCSH SCT030 SCT250
     FM261800 26014G20KT P6SM VCSH SCT040 SCT250
     FM262300 26012KT P6SM SCT040 BKN250=

USA.gov is the U.S. government's official web portal to all federal, state and local government web resources and services.